Flight Track Log - Related Links

Times and Time Zones

All times are in EDT time to prevent confusion due to time zone crossing. See the JBU45 flight status page for this flight to view local times or setup timezone preferences in your user account.

Time Position Orientation Groundspeed Altitude Reporting Facility
EDT Latitude Longitude Course Direction KTS MPH feet Rate Location/Type
Mon 06:51:51 AM 42.9167 -78.7500 202° Southwest 144 166 1,900  Level Buffalo TRACON
Mon 06:52:57 AM 42.8833 -78.8000 228° Southwest 179 206 3,300 1,714 Climbing Buffalo TRACON
Mon 06:54:00 AM 42.6006 -78.8973 203° Southwest  Level FlightAware Approximate
Mon 06:54:04 AM 42.8169 -78.8339 201° Southwest 242 278 5,700  Level Cleveland Center
Mon 06:55:00 AM 42.4874 -78.9507 198° South  Level FlightAware Approximate
Mon 06:55:05 AM 42.7458 -78.8658 198° South 274 315 8,900  Level Cleveland Center
Mon 06:56:00 AM 42.3769 -79.0125 202° Southwest  Level FlightAware Approximate
Mon 06:56:07 AM 42.6697 -78.9003 198° South 280 322 11,100  Level Cleveland Center
Mon 06:57:08 AM 42.5822 -78.9408 199° South 330 380 13,400 2,244 Climbing Cleveland Center
Mon 06:58:10 AM 42.4911 -78.9825 199° South 345 397 15,700 2,293 Climbing Cleveland Center
Mon 06:59:11 AM 42.3817 -79.0328 199° South 365 420 18,100 2,098 Climbing Cleveland Center
Mon 07:00:13 AM 42.2819 -79.0742 197° South 378 435 20,000 1,805 Climbing Cleveland Center
Mon 07:01:14 AM 42.1742 -79.1075 193° South 397 457 21,800 1,756 Climbing Cleveland Center
Mon 07:02:16 AM 42.0664 -79.1433 194° South 399 459 23,600 1,561 Climbing Cleveland Center
Mon 07:03:17 AM 41.9533 -79.1800 194° South 418 481 25,000 1,512 Climbing Cleveland Center
Mon 07:04:19 AM 41.8294 -79.2203 194° South 424 488 26,700 1,463 Climbing Cleveland Center
Mon 07:05:20 AM 41.7122 -79.2567 193° South 433 498 28,000 1,317 Climbing Cleveland Center
Mon 07:06:22 AM 41.5800 -79.3003 194° South 443 510 29,400 1,415 Climbing Cleveland Center
Mon 07:07:23 AM 41.4628 -79.3383 194° South 442 509 30,900 1,366 Climbing Cleveland Center
Mon 07:08:25 AM 41.3483 -79.3739 193° South 436 502 32,200 1,306 Climbing Cleveland Center
Mon 07:09:27 AM 41.2325 -79.4100 193° South 433 498 33,600 1,220 Climbing Cleveland Center
Mon 07:10:28 AM 41.1197 -79.4464 194° South 424 488 34,700 683 Climbing Cleveland Center
Mon 07:11:30 AM 41.0064 -79.4825 194° South 418 481 35,000 146 Climbing Cleveland Center
Mon 07:12:31 AM 40.8672 -79.5253 193° South 422 486 35,000  Level Cleveland Center
Mon 07:13:33 AM 40.7483 -79.5625 193° South 432 497 35,000  Level Cleveland Center
Mon 07:14:34 AM 40.6258 -79.5997 193° South 445 512 35,000  Level Cleveland Center
Mon 07:15:36 AM 40.5006 -79.6378 193° South 453 521 35,000  Level Cleveland Center
Mon 07:16:38 AM 40.3753 -79.6767 193° South 456 525 35,000  Level Cleveland Center
Mon 07:17:39 AM 40.2506 -79.7142 193° South 456 525 35,000  Level Cleveland Center
Mon 07:18:41 AM 40.1250 -79.7525 193° South 457 526 35,000  Level Cleveland Center
Mon 07:19:43 AM 39.9994 -79.7900 193° South 458 527 35,000  Level Cleveland Center
Mon 07:20:44 AM 39.8744 -79.8278 193° South 460 529 35,000  Level Cleveland Center
Mon 07:21:46 AM 39.7489 -79.8672 194° South 461 531 35,000  Level Cleveland Center
Mon 07:22:48 AM 39.6000 -79.9119 193° South 459 528 35,000  Level Cleveland Center
Mon 07:23:49 AM 39.4764 -79.9486 193° South 459 528 35,000  Level Cleveland Center
Mon 07:24:51 AM 39.3517 -79.9850 193° South 460 529 35,000  Level Cleveland Center
Mon 07:25:53 AM 39.2256 -80.0211 193° South 459 528 35,000  Level Cleveland Center
Mon 07:26:54 AM 39.1028 -80.0597 194° South 459 528 35,000  Level Cleveland Center
Mon 07:27:36 AM 39.0189 -80.0908 196° South 462 532 35,000  Level Washington Center
Mon 07:28:36 AM 38.8808 -80.1064 185° South 462 532 35,000  Level Washington Center
Mon 07:29:37 AM 38.7694 -80.1850 209° Southwest 443 510 35,000  Level Washington Center
Mon 07:30:37 AM 38.6661 -80.2689 212° Southwest 448 516 35,000 101 Level Washington Center
Mon 07:31:36 AM 38.5603 -80.3603 214° Southwest 459 528 35,200 353 Climbing Washington Center
Mon 07:32:36 AM 38.4653 -80.4392 213° Southwest 459 528 35,700 550 Climbing Washington Center
Mon 07:33:36 AM 38.3483 -80.4950 201° Southwest 459 528 36,300 645 Climbing Washington Center
Mon 07:34:37 AM 38.2222 -80.5186 188° South 449 517 37,000 344 Climbing Washington Center
Mon 07:35:38 AM 38.0836 -80.5436 188° South 464 534 37,000  Level Washington Center
Mon 07:36:38 AM 37.9536 -80.5589 185° South 469 540 37,000  Level Washington Center
Mon 07:37:36 AM 37.8297 -80.5769 187° South 469 540 37,000  Level Washington Center
Mon 07:38:36 AM 37.6997 -80.5919 185° South 469 540 37,000  Level Washington Center
Mon 07:41:41 AM 37.3081 -80.6392 185° South 468 539 37,000  Level Atlanta Center
Mon 07:42:41 AM 37.1919 -80.6544 186° South 468 539 37,000  Level Atlanta Center
Mon 07:43:41 AM 37.0672 -80.6703 186° South 463 533 37,000  Level Atlanta Center
Mon 07:44:41 AM 36.9403 -80.6836 185° South 458 527 37,000 50 Level Atlanta Center
Mon 07:45:41 AM 36.8117 -80.7019 187° South 463 533 37,100 450 Climbing Atlanta Center
Mon 07:46:41 AM 36.6911 -80.7147 185° South 453 521 37,900 450 Climbing Atlanta Center
Mon 07:47:41 AM 36.5642 -80.7303 186° South 453 521 38,000 50 Climbing Atlanta Center
Mon 07:48:41 AM 36.4394 -80.7458 186° South 458 527 38,000  Level Atlanta Center
Mon 07:49:41 AM 36.3147 -80.7611 186° South 458 527 38,000  Level Atlanta Center
Mon 07:50:41 AM 36.1900 -80.7767 186° South 458 527 38,000  Level Atlanta Center
Mon 07:51:41 AM 36.0633 -80.7894 185° South 458 527 38,000  Level Atlanta Center
Mon 07:52:41 AM 35.9386 -80.8047 186° South 458 527 38,000  Level Atlanta Center
Mon 07:53:41 AM 35.8158 -80.8222 187° South 463 533 38,000  Level Atlanta Center
Mon 07:54:41 AM 35.6869 -80.8350 185° South 463 533 38,000  Level Atlanta Center
Mon 07:55:41 AM 35.5622 -80.8528 187° South 463 533 38,000  Level Atlanta Center
Mon 07:56:41 AM 35.4353 -80.8653 185° South 463 533 38,000  Level Atlanta Center
Mon 07:57:41 AM 35.3083 -80.8828 186° South 463 533 38,000  Level Atlanta Center
Mon 07:58:41 AM 35.1836 -80.8978 186° South 463 533 38,000  Level Atlanta Center
Mon 08:00:33 AM 34.9456 -80.9275 186° South 477 549 38,000  Level Jacksonville Center
Mon 08:01:33 AM 34.8164 -80.9431 186° South 477 549 38,000  Level Jacksonville Center
Mon 08:02:33 AM 34.6875 -80.9611 187° South 477 549 38,000  Level Jacksonville Center
Mon 08:03:33 AM 34.5603 -80.9739 185° South 477 549 38,000  Level Jacksonville Center
Mon 08:04:33 AM 34.4314 -80.9919 187° South 471 542 38,000  Level Jacksonville Center
Mon 08:05:33 AM 34.3064 -81.0147 189° South 471 542 38,000  Level Jacksonville Center
Mon 08:06:33 AM 34.1925 -81.0625 199° South 447 514 38,000  Level Jacksonville Center
Mon 08:07:33 AM 34.0764 -81.1100 199° South 447 514 38,000  Level Jacksonville Center
Mon 08:08:33 AM 33.9558 -81.1600 199° South 447 514 38,000  Level Jacksonville Center
Mon 08:09:33 AM 33.8378 -81.2072 198° South 452 520 38,000  Level Jacksonville Center
Mon 08:10:33 AM 33.7217 -81.2619 201° Southwest 452 520 38,000  Level Jacksonville Center
Mon 08:11:33 AM 33.6033 -81.3117 199° South 452 520 38,000  Level Jacksonville Center
Mon 08:12:33 AM 33.4725 -81.3661 199° South 447 514 38,000  Level Jacksonville Center
Mon 08:13:33 AM 33.3622 -81.4053 197° South 452 520 38,000  Level Jacksonville Center
Mon 08:14:33 AM 33.2417 -81.4547 199° South 457 526 38,000  Level Jacksonville Center
Mon 08:15:33 AM 33.1150 -81.5111 200° South 457 526 38,000  Level Jacksonville Center
Mon 08:16:33 AM 32.9944 -81.5575 198° South 457 526 38,000  Level Jacksonville Center
Mon 08:17:33 AM 32.8761 -81.6089 200° South 457 526 38,000  Level Jacksonville Center
Mon 08:18:33 AM 32.7556 -81.6575 199° South 457 526 38,000  Level Jacksonville Center
Mon 08:19:33 AM 32.6411 -81.7033 199° South 457 526 38,000  Level Jacksonville Center
Mon 08:20:33 AM 32.5350 -81.7467 199° South 451 519 38,000  Level Jacksonville Center
Mon 08:21:33 AM 32.4039 -81.8000 199° South 451 519 38,000  Level Jacksonville Center
Mon 08:22:33 AM 32.2978 -81.8431 199° South 451 519 38,000  Level Jacksonville Center
Mon 08:23:33 AM 32.1689 -81.8936 198° South 451 519 38,000  Level Jacksonville Center
Mon 08:24:33 AM 32.0481 -81.9417 199° South 451 519 38,000  Level Jacksonville Center
Mon 08:25:33 AM 31.9378 -81.9719 193° South 456 525 38,000  Level Jacksonville Center
Mon 08:26:33 AM 31.7936 -81.9858 185° South 468 539 38,000  Level Jacksonville Center
Mon 08:27:33 AM 31.6769 -81.9967 185° South 468 539 38,000  Level Jacksonville Center
Mon 08:28:33 AM 31.5350 -82.0103 185° South 468 539 38,000  Level Jacksonville Center
Mon 08:29:33 AM 31.4014 -82.0261 186° South 481 554 38,000  Level Jacksonville Center
Mon 08:30:33 AM 31.2700 -82.0344 183° South 481 554 38,000  Level Jacksonville Center
Mon 08:31:33 AM 31.1406 -82.0456 184° South 481 554 38,000  Level Jacksonville Center
Mon 08:32:33 AM 31.0092 -82.0611 186° South 481 554 38,000  Level Jacksonville Center
Mon 08:33:33 AM 30.8797 -82.0744 185° South 481 554 38,000  Level Jacksonville Center
Mon 08:34:33 AM 30.7506 -82.0828 183° South 481 554 38,000  Level Jacksonville Center
Mon 08:35:33 AM 30.6189 -82.0961 185° South 481 554 38,000  Level Jacksonville Center
Mon 08:36:33 AM 30.5019 -82.0994 181° South 474 545 38,000  Level Jacksonville Center
Mon 08:37:33 AM 30.3706 -82.1125 185° South 474 545 38,000  Level Jacksonville Center
Mon 08:38:33 AM 30.2392 -82.1256 185° South 479 551 38,000  Level Jacksonville Center
Mon 08:39:33 AM 30.1075 -82.1147 176° South 474 545 38,000  Level Jacksonville Center
Mon 08:40:33 AM 29.9739 -82.0942 172° South 481 554 38,000  Level Jacksonville Center
Mon 08:41:33 AM 29.8483 -82.0664 169° South 481 554 38,000  Level Jacksonville Center
Mon 08:42:33 AM 29.7208 -82.0364 168° South 476 548 38,000 -400 Level Jacksonville Center
Mon 08:43:33 AM 29.5911 -82.0161 172° South 470 541 37,200 -1,100 Descending Jacksonville Center
Mon 08:44:33 AM 29.4617 -81.9908 170° South 470 541 35,800 -1,100 Descending Jacksonville Center
Mon 08:45:33 AM 29.3342 -81.9658 170° South 470 541 35,000 -400 Descending Jacksonville Center
Mon 08:46:33 AM 29.2044 -81.9361 169° South 470 541 35,000 -50 Level Jacksonville Center
Mon 08:47:33 AM 29.0750 -81.9114 171° South 470 541 34,900 -1,050 Descending Jacksonville Center
Mon 08:48:33 AM 28.9347 -81.8842 170° South 470 541 32,900 -2,118 Descending Jacksonville Center
Mon 08:50:06 AM 28.7336 -81.8436 170° South 457 526 29,500 -2,196 Descending Miami Center
Mon 08:51:06 AM 28.6008 -81.8189 171° South 475 547 27,300 -1,250 Descending Miami Center
Mon 08:52:06 AM 28.4728 -81.7847 167° South 480 552 27,000 -150 Descending Miami Center
Mon 08:53:06 AM 28.3383 -81.7506 167° South 485 558 27,000 -150 Level Miami Center
Mon 08:54:06 AM 28.2103 -81.7122 165° South 491 565 26,700 -1,050 Descending Miami Center
Mon 08:55:06 AM 28.0842 -81.6761 166° South 478 550 24,900 -1,700 Descending Miami Center
Mon 08:56:06 AM 27.9628 -81.6897 186° South 442 509 23,300 -1,550 Descending Miami Center
Mon 08:57:06 AM 27.8511 -81.7225 195° South 451 519 21,800 -1,500 Descending Miami Center
Mon 08:58:06 AM 27.7269 -81.6939 168° South 428 493 20,300 -1,500 Descending Miami Center
Mon 08:59:06 AM 27.6194 -81.6611 165° South 433 498 18,800 -1,550 Descending Miami Center
Mon 09:00:06 AM 27.5056 -81.6283 166° South 433 498 17,200 -1,650 Descending Miami Center
Mon 09:01:06 AM 27.3939 -81.5981 166° South 428 493 15,500 -1,700 Descending Miami Center
Mon 09:02:06 AM 27.2867 -81.5631 164° South 415 478 13,800 -1,700 Descending Miami Center
Mon 09:03:06 AM 27.1811 -81.5331 166° South 409 471 12,100 -1,700 Descending Miami Center
Mon 09:04:06 AM 27.0797 -81.5058 167° South 397 457 10,400 -1,050 Descending Miami Center
Mon 09:05:06 AM 26.9847 -81.4717 162° South 372 428 10,000 -200 Descending Miami Center
Mon 09:06:06 AM 26.8881 -81.4236 156° South 372 428 10,000 -50 Level Miami Center
Mon 09:07:06 AM 26.7978 -81.3806 157° South 366 421 9,900 -650 Descending Miami Center
Mon 09:08:06 AM 26.7158 -81.3914 187° South 317 365 8,700 -1,300 Descending Miami Center
Mon 09:09:06 AM 26.6436 -81.4328 207° Southwest 292 336 7,300 -1,300 Descending Miami Center
Mon 09:10:06 AM 26.5956 -81.5028 232° Southwest 279 321 6,100 -1,300 Descending Miami Center
Mon 09:11:06 AM 26.5469 -81.5822 236° Southwest 284 327 4,700 -1,100 Descending Miami Center
Mon 09:12:06 AM 26.5075 -81.6433 234° Southwest 284 327 3,900 -350 Descending Miami Center
Mon 09:13:06 AM 26.4592 -81.7131 232° Southwest 279 321 4,000 100 Climbing Miami Center
Mon 09:15:00 AM 26.5333 -81.7500 318° Northwest  Level FlightAware Approximate
Mon 09:22:00 AM 26.5362 -81.7552 318° Northwest  Level Estimated
Mon 09:23:00 AM 26.5333 -81.7500 318° Northwest  Level FlightAware Approximate
Mon 09:24:00 AM 26.5362 -81.7552 318° Northwest  Level Estimated
Mon 09:25:00 AM 26.5333 -81.7500 318° Northwest  Level FlightAware Approximate
Mon 09:26:00 AM 26.5362 -81.7552 318° Northwest  Level Estimated
Mon 09:27:00 AM 26.5333 -81.7500 318° Northwest  Level FlightAware Approximate
Mon 09:28:00 AM 26.5362 -81.7552 318° Northwest  Level Estimated
Mon 09:29:00 AM 26.5333 -81.7500 318° Northwest  Level FlightAware Approximate

Login

Don't have an account? Register now (free) for customized features, flight alerts, and more!